sensor_id;sensor_type;location;lat;lon;timestamp;P1;durP1;ratioP1;P2;durP2;ratioP2
41943;SDS011;27636;52.610;13.244;2024-03-08T00:03:39;12.68;;;7.22;;
41943;SDS011;27636;52.610;13.244;2024-03-08T00:09:34;10.90;;;4.25;;
41943;SDS011;27636;52.610;13.244;2024-03-08T00:14:44;9.77;;;5.18;;
41943;SDS011;27636;52.610;13.244;2024-03-08T00:19:48;8.38;;;3.95;;
41943;SDS011;27636;52.610;13.244;2024-03-08T00:24:54;20.25;;;8.00;;
41943;SDS011;27636;52.610;13.244;2024-03-08T00:30:00;11.85;;;3.85;;
41943;SDS011;27636;52.610;13.244;2024-03-08T00:35:05;8.85;;;5.07;;
41943;SDS011;27636;52.610;13.244;2024-03-08T00:40:29;11.02;;;5.80;;
41943;SDS011;27636;52.610;13.244;2024-03-08T00:45:35;14.93;;;5.22;;
41943;SDS011;27636;52.610;13.244;2024-03-08T00:50:42;25.20;;;5.00;;
41943;SDS011;27636;52.610;13.244;2024-03-08T00:55:50;17.58;;;6.55;;
41943;SDS011;27636;52.610;13.244;2024-03-08T01:01:00;23.48;;;6.03;;
41943;SDS011;27636;52.610;13.244;2024-03-08T01:06:04;10.07;;;5.87;;
41943;SDS011;27636;52.610;13.244;2024-03-08T01:11:12;10.50;;;5.88;;
41943;SDS011;27636;52.610;13.244;2024-03-08T01:16:26;10.77;;;6.03;;
41943;SDS011;27636;52.610;13.244;2024-03-08T01:21:53;12.05;;;5.13;;
41943;SDS011;27636;52.610;13.244;2024-03-08T01:27:03;8.57;;;4.22;;
41943;SDS011;27636;52.610;13.244;2024-03-08T01:32:37;12.90;;;6.78;;
41943;SDS011;27636;52.610;13.244;2024-03-08T01:37:41;6.25;;;3.10;;
41943;SDS011;27636;52.610;13.244;2024-03-08T01:42:47;10.40;;;5.93;;
41943;SDS011;27636;52.610;13.244;2024-03-08T01:47:51;10.15;;;4.05;;
41943;SDS011;27636;52.610;13.244;2024-03-08T01:52:54;17.98;;;5.45;;
41943;SDS011;27636;52.610;13.244;2024-03-08T01:58:04;11.10;;;4.18;;
41943;SDS011;27636;52.610;13.244;2024-03-08T02:03:08;13.20;;;4.97;;
41943;SDS011;27636;52.610;13.244;2024-03-08T02:08:12;11.70;;;5.57;;
41943;SDS011;27636;52.610;13.244;2024-03-08T02:13:21;10.98;;;3.13;;
41943;SDS011;27636;52.610;13.244;2024-03-08T02:18:25;13.63;;;6.45;;
41943;SDS011;27636;52.610;13.244;2024-03-08T02:23:31;10.07;;;5.57;;
41943;SDS011;27636;52.610;13.244;2024-03-08T02:28:36;10.73;;;4.53;;
41943;SDS011;27636;52.610;13.244;2024-03-08T02:33:40;8.77;;;4.53;;
41943;SDS011;27636;52.610;13.244;2024-03-08T02:38:46;6.55;;;5.10;;
41943;SDS011;27636;52.610;13.244;2024-03-08T02:43:49;9.00;;;4.13;;
41943;SDS011;27636;52.610;13.244;2024-03-08T02:48:53;13.23;;;6.23;;
41943;SDS011;27636;52.610;13.244;2024-03-08T02:53:59;13.30;;;4.20;;
41943;SDS011;27636;52.610;13.244;2024-03-08T02:59:02;19.42;;;5.35;;
41943;SDS011;27636;52.610;13.244;2024-03-08T03:04:06;14.40;;;5.03;;
41943;SDS011;27636;52.610;13.244;2024-03-08T03:09:11;8.65;;;5.18;;
41943;SDS011;27636;52.610;13.244;2024-03-08T03:14:16;9.57;;;4.65;;
41943;SDS011;27636;52.610;13.244;2024-03-08T03:19:19;10.05;;;3.55;;
41943;SDS011;27636;52.610;13.244;2024-03-08T03:24:25;9.13;;;4.23;;
41943;SDS011;27636;52.610;13.244;2024-03-08T03:29:32;17.13;;;6.97;;
41943;SDS011;27636;52.610;13.244;2024-03-08T03:34:36;14.82;;;3.95;;
41943;SDS011;27636;52.610;13.244;2024-03-08T03:39:41;9.98;;;5.75;;
41943;SDS011;27636;52.610;13.244;2024-03-08T03:45:05;9.93;;;5.22;;
41943;SDS011;27636;52.610;13.244;2024-03-08T03:50:09;11.95;;;5.50;;
41943;SDS011;27636;52.610;13.244;2024-03-08T03:55:15;15.43;;;6.40;;
41943;SDS011;27636;52.610;13.244;2024-03-08T04:00:19;7.32;;;4.10;;
41943;SDS011;27636;52.610;13.244;2024-03-08T04:05:23;12.88;;;5.40;;
41943;SDS011;27636;52.610;13.244;2024-03-08T04:10:28;12.88;;;5.97;;
41943;SDS011;27636;52.610;13.244;2024-03-08T04:15:31;17.38;;;6.43;;
41943;SDS011;27636;52.610;13.244;2024-03-08T04:20:35;10.70;;;4.80;;
41943;SDS011;27636;52.610;13.244;2024-03-08T04:25:40;11.77;;;7.68;;
41943;SDS011;27636;52.610;13.244;2024-03-08T04:30:45;8.60;;;5.05;;
41943;SDS011;27636;52.610;13.244;2024-03-08T04:35:49;8.63;;;4.68;;
41943;SDS011;27636;52.610;13.244;2024-03-08T04:40:54;10.55;;;5.90;;
41943;SDS011;27636;52.610;13.244;2024-03-08T04:45:58;13.90;;;7.13;;
41943;SDS011;27636;52.610;13.244;2024-03-08T04:51:02;26.48;;;5.63;;
41943;SDS011;27636;52.610;13.244;2024-03-08T04:56:07;16.73;;;6.05;;
41943;SDS011;27636;52.610;13.244;2024-03-08T05:01:11;14.35;;;5.38;;
41943;SDS011;27636;52.610;13.244;2024-03-08T05:06:15;11.60;;;5.67;;
41943;SDS011;27636;52.610;13.244;2024-03-08T05:11:20;13.65;;;4.68;;
41943;SDS011;27636;52.610;13.244;2024-03-08T05:16:24;12.05;;;5.85;;
41943;SDS011;27636;52.610;13.244;2024-03-08T05:21:28;8.82;;;5.78;;
41943;SDS011;27636;52.610;13.244;2024-03-08T05:26:35;11.43;;;5.30;;
41943;SDS011;27636;52.610;13.244;2024-03-08T05:31:45;11.50;;;6.80;;
41943;SDS011;27636;52.610;13.244;2024-03-08T05:36:52;14.25;;;7.20;;
41943;SDS011;27636;52.610;13.244;2024-03-08T05:41:59;19.90;;;6.40;;
41943;SDS011;27636;52.610;13.244;2024-03-08T05:47:03;20.65;;;8.43;;
41943;SDS011;27636;52.610;13.244;2024-03-08T05:52:07;16.95;;;5.82;;
41943;SDS011;27636;52.610;13.244;2024-03-08T05:57:12;16.27;;;8.32;;
41943;SDS011;27636;52.610;13.244;2024-03-08T06:02:17;41.50;;;6.32;;
41943;SDS011;27636;52.610;13.244;2024-03-08T06:07:22;21.67;;;7.47;;
41943;SDS011;27636;52.610;13.244;2024-03-08T06:12:27;12.80;;;6.32;;
41943;SDS011;27636;52.610;13.244;2024-03-08T06:17:35;13.95;;;6.28;;
41943;SDS011;27636;52.610;13.244;2024-03-08T06:22:39;14.37;;;5.77;;
41943;SDS011;27636;52.610;13.244;2024-03-08T06:27:49;17.45;;;7.15;;
41943;SDS011;27636;52.610;13.244;2024-03-08T06:32:53;15.63;;;7.95;;
41943;SDS011;27636;52.610;13.244;2024-03-08T06:37:57;14.57;;;6.25;;
41943;SDS011;27636;52.610;13.244;2024-03-08T06:43:02;20.08;;;7.35;;
41943;SDS011;27636;52.610;13.244;2024-03-08T06:48:09;23.48;;;8.80;;
41943;SDS011;27636;52.610;13.244;2024-03-08T06:53:14;20.83;;;8.27;;
41943;SDS011;27636;52.610;13.244;2024-03-08T06:58:21;16.73;;;8.00;;
41943;SDS011;27636;52.610;13.244;2024-03-08T07:03:26;13.20;;;7.05;;
41943;SDS011;27636;52.610;13.244;2024-03-08T07:08:30;14.00;;;7.27;;
41943;SDS011;27636;52.610;13.244;2024-03-08T07:13:35;26.33;;;10.73;;
41943;SDS011;27636;52.610;13.244;2024-03-08T07:18:39;22.52;;;10.25;;
41943;SDS011;27636;52.610;13.244;2024-03-08T07:23:46;30.50;;;12.32;;
41943;SDS011;27636;52.610;13.244;2024-03-08T07:29:14;26.50;;;11.00;;
41943;SDS011;27636;52.610;13.244;2024-03-08T07:39:22;28.27;;;10.82;;
41943;SDS011;27636;52.610;13.244;2024-03-08T07:44:28;29.83;;;13.60;;
41943;SDS011;27636;52.610;13.244;2024-03-08T07:49:33;38.53;;;13.40;;
41943;SDS011;27636;52.610;13.244;2024-03-08T07:54:37;28.75;;;13.05;;
41943;SDS011;27636;52.610;13.244;2024-03-08T07:59:42;32.85;;;12.20;;
41943;SDS011;27636;52.610;13.244;2024-03-08T08:04:47;23.83;;;10.30;;
41943;SDS011;27636;52.610;13.244;2024-03-08T08:09:52;27.92;;;10.00;;
41943;SDS011;27636;52.610;13.244;2024-03-08T08:14:57;29.67;;;12.32;;
41943;SDS011;27636;52.610;13.244;2024-03-08T08:20:01;25.60;;;11.68;;
41943;SDS011;27636;52.610;13.244;2024-03-08T08:25:08;28.73;;;10.63;;
41943;SDS011;27636;52.610;13.244;2024-03-08T08:30:17;26.88;;;11.73;;
41943;SDS011;27636;52.610;13.244;2024-03-08T08:35:21;23.90;;;11.02;;
41943;SDS011;27636;52.610;13.244;2024-03-08T08:40:27;26.23;;;11.13;;
41943;SDS011;27636;52.610;13.244;2024-03-08T08:50:37;32.58;;;11.80;;
41943;SDS011;27636;52.610;13.244;2024-03-08T08:55:42;23.83;;;10.15;;
41943;SDS011;27636;52.610;13.244;2024-03-08T09:00:47;26.35;;;10.32;;
41943;SDS011;27636;52.610;13.244;2024-03-08T09:05:51;23.35;;;9.48;;
41943;SDS011;27636;52.610;13.244;2024-03-08T09:10:55;21.95;;;9.18;;
41943;SDS011;27636;52.610;13.244;2024-03-08T09:16:01;34.47;;;10.27;;
41943;SDS011;27636;52.610;13.244;2024-03-08T09:21:06;22.00;;;9.75;;
41943;SDS011;27636;52.610;13.244;2024-03-08T09:26:12;23.73;;;9.93;;
41943;SDS011;27636;52.610;13.244;2024-03-08T09:31:31;23.77;;;9.60;;
41943;SDS011;27636;52.610;13.244;2024-03-08T09:41:40;31.70;;;11.43;;
41943;SDS011;27636;52.610;13.244;2024-03-08T09:46:46;22.70;;;9.50;;
41943;SDS011;27636;52.610;13.244;2024-03-08T09:51:54;23.38;;;10.57;;
41943;SDS011;27636;52.610;13.244;2024-03-08T09:56:59;23.55;;;9.85;;
41943;SDS011;27636;52.610;13.244;2024-03-08T10:02:04;25.55;;;8.85;;
41943;SDS011;27636;52.610;13.244;2024-03-08T10:07:08;31.85;;;11.45;;
41943;SDS011;27636;52.610;13.244;2024-03-08T10:12:12;19.88;;;9.10;;
41943;SDS011;27636;52.610;13.244;2024-03-08T10:17:17;26.30;;;10.30;;
41943;SDS011;27636;52.610;13.244;2024-03-08T10:22:23;25.67;;;11.15;;
41943;SDS011;27636;52.610;13.244;2024-03-08T10:27:28;24.20;;;10.02;;
41943;SDS011;27636;52.610;13.244;2024-03-08T10:32:33;23.73;;;10.80;;
41943;SDS011;27636;52.610;13.244;2024-03-08T10:37:39;18.55;;;9.15;;
41943;SDS011;27636;52.610;13.244;2024-03-08T10:42:51;28.75;;;11.30;;
41943;SDS011;27636;52.610;13.244;2024-03-08T10:48:03;19.23;;;8.25;;
41943;SDS011;27636;52.610;13.244;2024-03-08T10:53:13;21.20;;;8.38;;
41943;SDS011;27636;52.610;13.244;2024-03-08T10:58:18;19.30;;;7.75;;
41943;SDS011;27636;52.610;13.244;2024-03-08T11:03:44;21.00;;;8.48;;
41943;SDS011;27636;52.610;13.244;2024-03-08T11:08:52;20.15;;;7.65;;
41943;SDS011;27636;52.610;13.244;2024-03-08T11:13:58;21.13;;;7.97;;
41943;SDS011;27636;52.610;13.244;2024-03-08T11:19:06;25.42;;;8.50;;
41943;SDS011;27636;52.610;13.244;2024-03-08T11:24:28;25.23;;;9.82;;
41943;SDS011;27636;52.610;13.244;2024-03-08T11:29:41;17.92;;;6.90;;
41943;SDS011;27636;52.610;13.244;2024-03-08T11:34:47;23.00;;;7.90;;
41943;SDS011;27636;52.610;13.244;2024-03-08T11:39:53;21.85;;;7.53;;
41943;SDS011;27636;52.610;13.244;2024-03-08T11:45:07;27.10;;;8.45;;
41943;SDS011;27636;52.610;13.244;2024-03-08T11:50:13;19.58;;;7.88;;
41943;SDS011;27636;52.610;13.244;2024-03-08T11:55:18;24.65;;;8.60;;
41943;SDS011;27636;52.610;13.244;2024-03-08T12:00:24;19.67;;;7.05;;
41943;SDS011;27636;52.610;13.244;2024-03-08T12:05:31;17.33;;;7.68;;
41943;SDS011;27636;52.610;13.244;2024-03-08T12:10:40;24.17;;;7.55;;
41943;SDS011;27636;52.610;13.244;2024-03-08T12:15:43;19.52;;;8.27;;
41943;SDS011;27636;52.610;13.244;2024-03-08T12:20:49;16.57;;;7.57;;
41943;SDS011;27636;52.610;13.244;2024-03-08T12:25:53;21.73;;;8.25;;
41943;SDS011;27636;52.610;13.244;2024-03-08T12:30:57;22.77;;;8.35;;
41943;SDS011;27636;52.610;13.244;2024-03-08T12:36:04;17.45;;;7.93;;
41943;SDS011;27636;52.610;13.244;2024-03-08T12:41:10;16.85;;;7.55;;
41943;SDS011;27636;52.610;13.244;2024-03-08T12:46:15;16.63;;;7.80;;
41943;SDS011;27636;52.610;13.244;2024-03-08T12:51:21;15.55;;;7.30;;
41943;SDS011;27636;52.610;13.244;2024-03-08T12:56:28;23.15;;;8.35;;
41943;SDS011;27636;52.610;13.244;2024-03-08T13:01:34;19.23;;;7.95;;
41943;SDS011;27636;52.610;13.244;2024-03-08T13:06:41;15.77;;;6.35;;
41943;SDS011;27636;52.610;13.244;2024-03-08T13:11:45;18.75;;;7.28;;
41943;SDS011;27636;52.610;13.244;2024-03-08T13:16:49;26.70;;;8.55;;
41943;SDS011;27636;52.610;13.244;2024-03-08T13:21:56;20.77;;;6.80;;
41943;SDS011;27636;52.610;13.244;2024-03-08T13:27:00;21.48;;;7.60;;
41943;SDS011;27636;52.610;13.244;2024-03-08T13:32:05;20.40;;;7.17;;
41943;SDS011;27636;52.610;13.244;2024-03-08T13:37:11;20.15;;;8.80;;
41943;SDS011;27636;52.610;13.244;2024-03-08T13:47:19;17.17;;;7.82;;
41943;SDS011;27636;52.610;13.244;2024-03-08T13:52:24;20.10;;;7.72;;
41943;SDS011;27636;52.610;13.244;2024-03-08T13:57:28;22.33;;;8.85;;
41943;SDS011;27636;52.610;13.244;2024-03-08T14:02:32;18.58;;;7.95;;
41943;SDS011;27636;52.610;13.244;2024-03-08T14:07:38;19.67;;;7.57;;
41943;SDS011;27636;52.610;13.244;2024-03-08T14:12:42;20.23;;;8.30;;
41943;SDS011;27636;52.610;13.244;2024-03-08T14:17:52;23.38;;;9.35;;
41943;SDS011;27636;52.610;13.244;2024-03-08T14:22:57;21.92;;;9.00;;
41943;SDS011;27636;52.610;13.244;2024-03-08T14:28:01;20.00;;;8.30;;
41943;SDS011;27636;52.610;13.244;2024-03-08T14:38:14;23.88;;;8.95;;
41943;SDS011;27636;52.610;13.244;2024-03-08T14:43:20;21.42;;;7.90;;
41943;SDS011;27636;52.610;13.244;2024-03-08T14:53:30;23.02;;;8.68;;
41943;SDS011;27636;52.610;13.244;2024-03-08T14:58:35;19.63;;;8.45;;
41943;SDS011;27636;52.610;13.244;2024-03-08T15:03:41;19.15;;;7.57;;
41943;SDS011;27636;52.610;13.244;2024-03-08T15:08:49;17.52;;;7.18;;
41943;SDS011;27636;52.610;13.244;2024-03-08T15:13:53;20.42;;;8.18;;
41943;SDS011;27636;52.610;13.244;2024-03-08T15:18:57;19.85;;;7.03;;
41943;SDS011;27636;52.610;13.244;2024-03-08T15:24:05;18.00;;;7.80;;
41943;SDS011;27636;52.610;13.244;2024-03-08T15:29:13;20.38;;;7.78;;
41943;SDS011;27636;52.610;13.244;2024-03-08T15:34:17;19.15;;;7.57;;
41943;SDS011;27636;52.610;13.244;2024-03-08T15:39:26;17.48;;;7.93;;
41943;SDS011;27636;52.610;13.244;2024-03-08T15:44:30;19.90;;;7.20;;
41943;SDS011;27636;52.610;13.244;2024-03-08T15:49:34;16.63;;;7.10;;
41943;SDS011;27636;52.610;13.244;2024-03-08T15:54:40;18.23;;;6.90;;
41943;SDS011;27636;52.610;13.244;2024-03-08T15:59:46;20.88;;;8.05;;
41943;SDS011;27636;52.610;13.244;2024-03-08T16:04:50;20.20;;;8.85;;
41943;SDS011;27636;52.610;13.244;2024-03-08T16:09:57;18.17;;;6.68;;
41943;SDS011;27636;52.610;13.244;2024-03-08T16:15:01;19.83;;;6.03;;
41943;SDS011;27636;52.610;13.244;2024-03-08T16:20:09;17.33;;;6.68;;
41943;SDS011;27636;52.610;13.244;2024-03-08T16:25:16;15.43;;;5.57;;
41943;SDS011;27636;52.610;13.244;2024-03-08T16:30:21;16.55;;;5.18;;
41943;SDS011;27636;52.610;13.244;2024-03-08T16:40:32;15.27;;;5.57;;
41943;SDS011;27636;52.610;13.244;2024-03-08T16:45:35;12.20;;;5.07;;
41943;SDS011;27636;52.610;13.244;2024-03-08T16:50:39;19.48;;;7.18;;
41943;SDS011;27636;52.610;13.244;2024-03-08T17:00:50;13.38;;;5.72;;
41943;SDS011;27636;52.610;13.244;2024-03-08T17:05:54;15.82;;;6.82;;
41943;SDS011;27636;52.610;13.244;2024-03-08T17:11:00;14.37;;;6.20;;
41943;SDS011;27636;52.610;13.244;2024-03-08T17:16:04;16.00;;;7.10;;
41943;SDS011;27636;52.610;13.244;2024-03-08T17:21:09;14.27;;;5.43;;
41943;SDS011;27636;52.610;13.244;2024-03-08T17:26:17;16.95;;;5.95;;
41943;SDS011;27636;52.610;13.244;2024-03-08T17:31:22;14.60;;;5.80;;
41943;SDS011;27636;52.610;13.244;2024-03-08T17:36:26;16.05;;;6.43;;
41943;SDS011;27636;52.610;13.244;2024-03-08T17:41:31;14.30;;;5.03;;
41943;SDS011;27636;52.610;13.244;2024-03-08T17:51:40;15.57;;;4.95;;
41943;SDS011;27636;52.610;13.244;2024-03-08T17:56:46;12.43;;;5.70;;
41943;SDS011;27636;52.610;13.244;2024-03-08T18:01:50;10.27;;;3.85;;
41943;SDS011;27636;52.610;13.244;2024-03-08T18:06:53;14.48;;;5.13;;
41943;SDS011;27636;52.610;13.244;2024-03-08T18:11:59;13.68;;;4.07;;
41943;SDS011;27636;52.610;13.244;2024-03-08T18:17:04;13.57;;;5.28;;
41943;SDS011;27636;52.610;13.244;2024-03-08T18:22:09;11.32;;;4.15;;
41943;SDS011;27636;52.610;13.244;2024-03-08T18:27:16;11.35;;;5.28;;
41943;SDS011;27636;52.610;13.244;2024-03-08T18:32:20;16.50;;;6.75;;
41943;SDS011;27636;52.610;13.244;2024-03-08T18:37:25;10.63;;;3.85;;
41943;SDS011;27636;52.610;13.244;2024-03-08T18:42:33;15.23;;;6.38;;
41943;SDS011;27636;52.610;13.244;2024-03-08T18:47:37;15.48;;;4.72;;
41943;SDS011;27636;52.610;13.244;2024-03-08T18:52:42;11.63;;;5.22;;
41943;SDS011;27636;52.610;13.244;2024-03-08T18:57:55;18.23;;;6.65;;
41943;SDS011;27636;52.610;13.244;2024-03-08T19:03:05;17.13;;;6.07;;
41943;SDS011;27636;52.610;13.244;2024-03-08T19:08:13;16.67;;;7.15;;
41943;SDS011;27636;52.610;13.244;2024-03-08T19:13:19;19.05;;;7.78;;
41943;SDS011;27636;52.610;13.244;2024-03-08T19:18:24;14.15;;;6.72;;
41943;SDS011;27636;52.610;13.244;2024-03-08T19:23:30;18.80;;;6.78;;
41943;SDS011;27636;52.610;13.244;2024-03-08T19:28:38;14.15;;;5.53;;
41943;SDS011;27636;52.610;13.244;2024-03-08T19:33:42;17.10;;;7.07;;
41943;SDS011;27636;52.610;13.244;2024-03-08T19:38:46;15.60;;;5.93;;
41943;SDS011;27636;52.610;13.244;2024-03-08T19:43:51;18.70;;;7.18;;
41943;SDS011;27636;52.610;13.244;2024-03-08T19:53:59;16.23;;;7.13;;
41943;SDS011;27636;52.610;13.244;2024-03-08T19:59:05;18.50;;;7.93;;
41943;SDS011;27636;52.610;13.244;2024-03-08T20:04:10;19.25;;;6.93;;
41943;SDS011;27636;52.610;13.244;2024-03-08T20:09:17;30.55;;;9.00;;
41943;SDS011;27636;52.610;13.244;2024-03-08T20:19:29;15.95;;;6.45;;
41943;SDS011;27636;52.610;13.244;2024-03-08T20:24:33;16.45;;;6.60;;
41943;SDS011;27636;52.610;13.244;2024-03-08T20:29:38;24.02;;;6.47;;
41943;SDS011;27636;52.610;13.244;2024-03-08T20:34:44;15.85;;;7.95;;
41943;SDS011;27636;52.610;13.244;2024-03-08T20:39:47;18.00;;;7.00;;
41943;SDS011;27636;52.610;13.244;2024-03-08T20:44:53;13.20;;;7.13;;
41943;SDS011;27636;52.610;13.244;2024-03-08T20:49:58;15.98;;;6.90;;
41943;SDS011;27636;52.610;13.244;2024-03-08T20:55:02;14.55;;;6.68;;
41943;SDS011;27636;52.610;13.244;2024-03-08T21:00:12;15.98;;;6.97;;
41943;SDS011;27636;52.610;13.244;2024-03-08T21:05:22;21.83;;;9.60;;
41943;SDS011;27636;52.610;13.244;2024-03-08T21:10:26;14.20;;;7.17;;
41943;SDS011;27636;52.610;13.244;2024-03-08T21:15:35;20.67;;;7.55;;
41943;SDS011;27636;52.610;13.244;2024-03-08T21:20:39;20.90;;;7.22;;
41943;SDS011;27636;52.610;13.244;2024-03-08T21:25:44;19.52;;;7.15;;
41943;SDS011;27636;52.610;13.244;2024-03-08T21:30:51;20.52;;;7.30;;
41943;SDS011;27636;52.610;13.244;2024-03-08T21:35:55;24.77;;;8.00;;
41943;SDS011;27636;52.610;13.244;2024-03-08T21:40:59;16.55;;;7.00;;
41943;SDS011;27636;52.610;13.244;2024-03-08T21:46:08;16.45;;;7.97;;
41943;SDS011;27636;52.610;13.244;2024-03-08T21:51:12;18.00;;;7.78;;
41943;SDS011;27636;52.610;13.244;2024-03-08T21:56:16;19.23;;;6.93;;
41943;SDS011;27636;52.610;13.244;2024-03-08T22:01:22;17.65;;;7.63;;
41943;SDS011;27636;52.610;13.244;2024-03-08T22:06:27;16.92;;;8.55;;
41943;SDS011;27636;52.610;13.244;2024-03-08T22:11:31;23.30;;;8.57;;
41943;SDS011;27636;52.610;13.244;2024-03-08T22:16:37;15.23;;;7.10;;
41943;SDS011;27636;52.610;13.244;2024-03-08T22:21:43;13.27;;;7.70;;
41943;SDS011;27636;52.610;13.244;2024-03-08T22:26:47;16.20;;;8.15;;
41943;SDS011;27636;52.610;13.244;2024-03-08T22:31:52;18.07;;;7.43;;
41943;SDS011;27636;52.610;13.244;2024-03-08T22:36:56;18.75;;;7.95;;
41943;SDS011;27636;52.610;13.244;2024-03-08T22:42:00;16.27;;;7.28;;
41943;SDS011;27636;52.610;13.244;2024-03-08T22:47:06;17.33;;;5.78;;
41943;SDS011;27636;52.610;13.244;2024-03-08T22:52:10;18.60;;;7.72;;
41943;SDS011;27636;52.610;13.244;2024-03-08T22:57:16;19.60;;;9.55;;
41943;SDS011;27636;52.610;13.244;2024-03-08T23:02:23;17.20;;;7.35;;
41943;SDS011;27636;52.610;13.244;2024-03-08T23:07:26;19.35;;;8.52;;
41943;SDS011;27636;52.610;13.244;2024-03-08T23:12:31;25.77;;;7.85;;
41943;SDS011;27636;52.610;13.244;2024-03-08T23:17:40;17.30;;;8.38;;
41943;SDS011;27636;52.610;13.244;2024-03-08T23:22:45;21.85;;;8.40;;
41943;SDS011;27636;52.610;13.244;2024-03-08T23:27:53;20.55;;;8.00;;
41943;SDS011;27636;52.610;13.244;2024-03-08T23:33:01;17.70;;;7.82;;
41943;SDS011;27636;52.610;13.244;2024-03-08T23:38:04;17.02;;;8.23;;
41943;SDS011;27636;52.610;13.244;2024-03-08T23:43:13;12.20;;;6.90;;
41943;SDS011;27636;52.610;13.244;2024-03-08T23:48:18;25.05;;;8.00;;
41943;SDS011;27636;52.610;13.244;2024-03-08T23:53:22;21.42;;;8.10;;
41943;SDS011;27636;52.610;13.244;2024-03-08T23:58:26;18.98;;;7.85;;
